Airfield :







YOU CAN JOIN US ON...

 
LOGIN :

Register | Disclaimer

   EN    FR    IT 

 









Legend :    VFR   Marginal VFR   IFR   Intensive IFR   Very Intensive IFR
Visi :
Ceiling :
>= 8 km
>= 3000ft
5 to 8 km
1000 to 3000 ft
1500m to 5 km
500 to 1000 ft
800 to 1500m
200 to 500 ft
< 800m
< 200 ft
Symbols :   Thunderstorms  Fog  Heavy snow  Heavy precipitations  Wind > 20 kt







- Airport Elevation : 112 ft
- IATA code : UAK


BGBW - Narsarsuak

CURRENT METAR :
  • 191550Z 02004KT 340V060 9999 FEW020 SCT059 BKN080 07/00 Q1005

EXPIRED METARs :
  • 191450Z 21002KT 9999 FEW020 SCT060 BKN080 06/01 Q1006
  • 191350Z 23003KT 9999 VCSH FEW020 SCT052 BKN080 06/01 Q1006

TAF TAF BGBW
Valid from the 19 at 15:00 until the 19 at 19:00 UTC


191359Z 1915/1919 VRB05KT 9999 SCT040 BKN090
TEMPO 1915/1919 -RADZ BKN020
No reported NOTAMs for that airfield.



MET'MAP, your aeronautical weather chart ! - Copyright ORBIFLY December 2007 - Disclaimer

ORBIFLY MET'MAP TEAM :

Programming & Development : Alexandra Zaïnal
Concept & Development : Baudouin d'Aumeries
Co-Development & Prog : Marc-Olivier Méhu
Technical & hardware support : Manuel Goepfert

Contact : metmap@orbifly.com




SOURCES & CREDITS :

   NOAA